Granville, Indiana
Current Conditions -  °F | °C
As of 6:53 AM on Wednesday 26 Nov 2014 (Local Time) from KMIE Reporting Station
Overcast Overcast  
Wind Chill: 22°   Ceiling: 1300
Heat Index: 27°   Visibility: 10mi
Dew Point: 22°   Wind: 5mph
Humidity: 81%   Direction: 20°NNE
Pressure: 30.13"   Gusts: NA
Location:  40.3453°N, 85.3353°W
Report Text: KMIE 261153Z 02004KT 10SM OVC013 M03/M06 A3013 RMK AO2 SLP211 T10281056 11022 21028 55006
Loading
Personal Weather Stations






























Interactive Weather Map New forecast layout! Learn more

10-Day Weather Forecast

Advertisements
Track Severe Weather on mobile